DLH341 EDLW-LIMJ
Flight info
| Callsign | DLH341 |
|---|---|
| Flight time | 1h 53m |
| Altitude | 36000 |
| Route | GMH Q603 TESGA L603 BOMBI DCT GIGET DCT ABUKA DCT KRH DCT NATOR DCT TRA DCT RIPUS DCT GERSA DCT SOSON DCT ODINA M727 SRN L153 ROBAS T772 MONEB |
| Aircraft | A321/M-DE2E3FGIJ1LORVWXYZ/HB2 |
Departure
| Time | 2026-04-21 19:01 |
|---|---|
| Airport | Dortmund Airport (EDLW) |
Arrival
| Time | 2026-04-21 20:54 |
|---|---|
| Airport | Genoa Cristoforo Colombo Airport (LIMJ) |
| Time | Latitude | Longitude | Altitude | Speed | Heading |
|---|---|---|---|---|---|
| 2026-04-21 18:44 | 51.51602 | 7.61344 | 434 ft | 0 kts | 332° |
| 2026-04-21 18:57 | 51.51622 | 7.61326 | 422 ft | 7 kts | 332° |
| 2026-04-21 18:57 | 51.51654 | 7.61289 | 423 ft | 5 kts | 302° |
| 2026-04-21 18:57 | 51.51642 | 7.61222 | 433 ft | 7 kts | 237° |
| 2026-04-21 18:58 | 51.51615 | 7.61150 | 428 ft | 8 kts | 240° |
| 2026-04-21 18:58 | 51.51589 | 7.61059 | 426 ft | 10 kts | 248° |
| 2026-04-21 18:58 | 51.51556 | 7.60954 | 424 ft | 10 kts | 241° |
| 2026-04-21 18:58 | 51.51512 | 7.60825 | 422 ft | 17 kts | 241° |
| 2026-04-21 18:59 | 51.51453 | 7.60659 | 416 ft | 17 kts | 240° |
| 2026-04-21 18:59 | 51.51397 | 7.60498 | 421 ft | 17 kts | 241° |
| 2026-04-21 18:59 | 51.51356 | 7.60360 | 416 ft | 10 kts | 265° |
| 2026-04-21 18:59 | 51.51417 | 7.60254 | 415 ft | 17 kts | 329° |
| 2026-04-21 19:00 | 51.51504 | 7.60290 | 411 ft | 12 kts | 59° |
| 2026-04-21 19:00 | 51.51594 | 7.60544 | 413 ft | 60 kts | 60° |
| 2026-04-21 19:00 | 51.51920 | 7.61468 | 417 ft | 128 kts | 60° |
| 2026-04-21 19:00 | 51.52381 | 7.62802 | 945 ft | 141 kts | 62° |
| 2026-04-21 19:01 | 51.52865 | 7.64269 | 1675 ft | 154 kts | 63° |
| 2026-04-21 19:01 | 51.53388 | 7.65791 | 2499 ft | 157 kts | 61° |
| 2026-04-21 19:01 | 51.53972 | 7.67414 | 2791 ft | 178 kts | 60° |
| 2026-04-21 19:01 | 51.54635 | 7.69203 | 3119 ft | 196 kts | 60° |
| 2026-04-21 19:02 | 51.55357 | 7.71203 | 3341 ft | 222 kts | 62° |
| 2026-04-21 19:02 | 51.56029 | 7.73533 | 3741 ft | 238 kts | 77° |
| 2026-04-21 19:02 | 51.55934 | 7.76271 | 4296 ft | 250 kts | 112° |
| 2026-04-21 19:02 | 51.54785 | 7.78291 | 5006 ft | 260 kts | 150° |
| 2026-04-21 19:03 | 51.52983 | 7.78842 | 5671 ft | 270 kts | 179° |
| 2026-04-21 19:03 | 51.51099 | 7.78533 | 6421 ft | 274 kts | 187° |
| 2026-04-21 19:03 | 51.49236 | 7.77869 | 7171 ft | 277 kts | 196° |
| 2026-04-21 19:03 | 51.47392 | 7.76869 | 7819 ft | 281 kts | 197° |
| 2026-04-21 19:04 | 51.45546 | 7.75827 | 8570 ft | 283 kts | 196° |
| 2026-04-21 19:04 | 51.43593 | 7.75249 | 9129 ft | 284 kts | 177° |
| 2026-04-21 19:04 | 51.41647 | 7.75495 | 9887 ft | 283 kts | 165° |
| 2026-04-21 19:04 | 51.39741 | 7.76410 | 10427 ft | 288 kts | 156° |
| 2026-04-21 19:05 | 51.37791 | 7.77523 | 10611 ft | 309 kts | 156° |
| 2026-04-21 19:05 | 51.35742 | 7.78702 | 11115 ft | 315 kts | 156° |
| 2026-04-21 19:05 | 51.33670 | 7.79881 | 11731 ft | 317 kts | 156° |
| 2026-04-21 19:05 | 51.31576 | 7.81062 | 12365 ft | 320 kts | 157° |
| 2026-04-21 19:06 | 51.29463 | 7.82249 | 13003 ft | 324 kts | 157° |
| 2026-04-21 19:06 | 51.27325 | 7.83450 | 13616 ft | 327 kts | 157° |
| 2026-04-21 19:06 | 51.25165 | 7.84664 | 14207 ft | 331 kts | 157° |
| 2026-04-21 19:06 | 51.22984 | 7.85886 | 14761 ft | 334 kts | 157° |
| 2026-04-21 19:07 | 51.20782 | 7.87116 | 15321 ft | 336 kts | 157° |
| 2026-04-21 19:07 | 51.18567 | 7.88358 | 15891 ft | 338 kts | 156° |
| 2026-04-21 19:07 | 51.16425 | 7.89885 | 16438 ft | 337 kts | 147° |
| 2026-04-21 19:07 | 51.14435 | 7.91859 | 17011 ft | 338 kts | 143° |
| 2026-04-21 19:08 | 51.12451 | 7.93891 | 17549 ft | 340 kts | 143° |
| 2026-04-21 19:08 | 51.10451 | 7.95931 | 18126 ft | 343 kts | 143° |
| 2026-04-21 19:08 | 51.08433 | 7.97983 | 18665 ft | 345 kts | 143° |
| 2026-04-21 19:08 | 51.06404 | 8.00041 | 19157 ft | 347 kts | 143° |
| 2026-04-21 19:09 | 51.04351 | 8.02122 | 19591 ft | 351 kts | 143° |
| 2026-04-21 19:09 | 51.02286 | 8.04221 | 20037 ft | 354 kts | 143° |
| 2026-04-21 19:09 | 51.00203 | 8.06339 | 20526 ft | 356 kts | 143° |
| 2026-04-21 19:09 | 50.98114 | 8.08457 | 20998 ft | 358 kts | 143° |
| 2026-04-21 19:10 | 50.96023 | 8.10571 | 21464 ft | 360 kts | 143° |
| 2026-04-21 19:10 | 50.93888 | 8.12722 | 21935 ft | 362 kts | 143° |
| 2026-04-21 19:10 | 50.91760 | 8.14862 | 22392 ft | 364 kts | 143° |
| 2026-04-21 19:10 | 50.89615 | 8.17019 | 22849 ft | 366 kts | 143° |
| 2026-04-21 19:11 | 50.87463 | 8.19182 | 23299 ft | 368 kts | 143° |
| 2026-04-21 19:11 | 50.85277 | 8.21379 | 23742 ft | 370 kts | 143° |
| 2026-04-21 19:11 | 50.83141 | 8.23522 | 24100 ft | 372 kts | 143° |
| 2026-04-21 19:11 | 50.80950 | 8.25714 | 24230 ft | 373 kts | 143° |
| 2026-04-21 19:12 | 50.79467 | 8.27196 | 24249 ft | 372 kts | 143° |
| 2026-04-21 19:12 | 50.76569 | 8.30091 | 24252 ft | 372 kts | 143° |
| 2026-04-21 19:12 | 50.74382 | 8.32274 | 24254 ft | 374 kts | 143° |
| 2026-04-21 19:12 | 50.72136 | 8.34518 | 24257 ft | 387 kts | 143° |
| 2026-04-21 19:13 | 50.69823 | 8.36833 | 24256 ft | 399 kts | 143° |
| 2026-04-21 19:13 | 50.67459 | 8.39192 | 24256 ft | 403 kts | 143° |
| 2026-04-21 19:13 | 50.65090 | 8.41541 | 24257 ft | 404 kts | 144° |
| 2026-04-21 19:13 | 50.62718 | 8.43889 | 24266 ft | 403 kts | 143° |
| 2026-04-21 19:14 | 50.60343 | 8.46238 | 24268 ft | 402 kts | 143° |
| 2026-04-21 19:14 | 50.57972 | 8.48585 | 24269 ft | 402 kts | 143° |
| 2026-04-21 19:14 | 50.55605 | 8.50931 | 24273 ft | 403 kts | 144° |
| 2026-04-21 19:14 | 50.53245 | 8.53268 | 24264 ft | 405 kts | 144° |
| 2026-04-21 19:15 | 50.50836 | 8.55644 | 24264 ft | 406 kts | 144° |
| 2026-04-21 19:15 | 50.48446 | 8.57993 | 24266 ft | 406 kts | 144° |
| 2026-04-21 19:15 | 50.46036 | 8.60350 | 24512 ft | 409 kts | 146° |
| 2026-04-21 19:15 | 50.43464 | 8.62315 | 24866 ft | 415 kts | 155° |
| 2026-04-21 19:16 | 50.40695 | 8.63695 | 25200 ft | 419 kts | 160° |
| 2026-04-21 19:16 | 50.37911 | 8.64989 | 25537 ft | 421 kts | 160° |
| 2026-04-21 19:16 | 50.35078 | 8.66308 | 25860 ft | 423 kts | 160° |
| 2026-04-21 19:16 | 50.32252 | 8.67630 | 26197 ft | 425 kts | 160° |
| 2026-04-21 19:17 | 50.26532 | 8.70321 | 26704 ft | 433 kts | 160° |
| 2026-04-21 19:17 | 50.23647 | 8.71672 | 26999 ft | 435 kts | 161° |
| 2026-04-21 19:17 | 50.20732 | 8.73029 | 27296 ft | 437 kts | 161° |
| 2026-04-21 19:18 | 50.17811 | 8.74386 | 27592 ft | 439 kts | 161° |
| 2026-04-21 19:18 | 50.14946 | 8.75716 | 27883 ft | 441 kts | 161° |
| 2026-04-21 19:18 | 50.11994 | 8.77086 | 28177 ft | 443 kts | 161° |
| 2026-04-21 19:18 | 50.09029 | 8.78435 | 28462 ft | 446 kts | 163° |
| 2026-04-21 19:19 | 50.05949 | 8.79285 | 28674 ft | 452 kts | 173° |
| 2026-04-21 19:19 | 50.02827 | 8.79365 | 28900 ft | 457 kts | 183° |
| 2026-04-21 19:19 | 49.99656 | 8.78774 | 29152 ft | 460 kts | 187° |
| 2026-04-21 19:19 | 49.96490 | 8.78099 | 29427 ft | 462 kts | 187° |
| 2026-04-21 19:20 | 49.93301 | 8.77432 | 29679 ft | 464 kts | 187° |
| 2026-04-21 19:20 | 49.90090 | 8.76770 | 29919 ft | 466 kts | 187° |
| 2026-04-21 19:20 | 49.86870 | 8.76107 | 30158 ft | 468 kts | 187° |
| 2026-04-21 19:20 | 49.83632 | 8.75444 | 30344 ft | 471 kts | 187° |
| 2026-04-21 19:21 | 49.78272 | 8.74345 | 30608 ft | 474 kts | 188° |
| 2026-04-21 19:21 | 49.75003 | 8.73678 | 30802 ft | 475 kts | 188° |
| 2026-04-21 19:21 | 49.71721 | 8.73005 | 31051 ft | 475 kts | 188° |
| 2026-04-21 19:22 | 49.68474 | 8.72338 | 31288 ft | 474 kts | 188° |
| 2026-04-21 19:22 | 49.65436 | 8.71719 | 31501 ft | 474 kts | 188° |
| 2026-04-21 19:22 | 49.62423 | 8.71121 | 31699 ft | 474 kts | 188° |
| 2026-04-21 19:22 | 49.59162 | 8.70479 | 32130 ft | 468 kts | 188° |
| 2026-04-21 19:23 | 49.55967 | 8.69835 | 32775 ft | 459 kts | 189° |
| 2026-04-21 19:23 | 49.52810 | 8.69193 | 33168 ft | 456 kts | 189° |
| 2026-04-21 19:23 | 49.49660 | 8.68552 | 33466 ft | 456 kts | 189° |
| 2026-04-21 19:23 | 49.46522 | 8.67917 | 33743 ft | 455 kts | 189° |
| 2026-04-21 19:24 | 49.43403 | 8.67287 | 34000 ft | 455 kts | 189° |
| 2026-04-21 19:24 | 49.40263 | 8.66651 | 34229 ft | 455 kts | 190° |
| 2026-04-21 19:24 | 49.37122 | 8.66013 | 34417 ft | 456 kts | 190° |
| 2026-04-21 19:24 | 49.33973 | 8.65373 | 34616 ft | 456 kts | 190° |
| 2026-04-21 19:25 | 49.30872 | 8.64745 | 34816 ft | 456 kts | 190° |
| 2026-04-21 19:25 | 49.27754 | 8.64116 | 35014 ft | 456 kts | 190° |
| 2026-04-21 19:25 | 49.24609 | 8.63486 | 35168 ft | 456 kts | 190° |
| 2026-04-21 19:25 | 49.21460 | 8.62860 | 35205 ft | 457 kts | 190° |
| 2026-04-21 19:26 | 49.15082 | 8.61582 | 35203 ft | 467 kts | 191° |
| 2026-04-21 19:26 | 49.08805 | 8.60314 | 35198 ft | 473 kts | 191° |
| 2026-04-21 19:27 | 49.02311 | 8.59011 | 35198 ft | 474 kts | 190° |
| 2026-04-21 19:27 | 48.95816 | 8.57545 | 35196 ft | 473 kts | 194° |
| 2026-04-21 19:28 | 48.89577 | 8.55515 | 35198 ft | 471 kts | 197° |
| 2026-04-21 19:28 | 48.83191 | 8.53235 | 35196 ft | 471 kts | 197° |
| 2026-04-21 19:29 | 48.76812 | 8.51098 | 35191 ft | 472 kts | 196° |
| 2026-04-21 19:29 | 48.70345 | 8.49037 | 35198 ft | 473 kts | 196° |
| 2026-04-21 19:30 | 48.63898 | 8.47004 | 35198 ft | 474 kts | 196° |
| 2026-04-21 19:30 | 48.57444 | 8.44952 | 35192 ft | 474 kts | 196° |
| 2026-04-21 19:31 | 48.50986 | 8.42888 | 35190 ft | 474 kts | 196° |
| 2026-04-21 19:31 | 48.44540 | 8.40836 | 35186 ft | 473 kts | 196° |
| 2026-04-21 19:32 | 48.38093 | 8.38795 | 35186 ft | 473 kts | 196° |
| 2026-04-21 19:32 | 48.31645 | 8.36757 | 35185 ft | 474 kts | 197° |
| 2026-04-21 19:33 | 48.25222 | 8.34716 | 35177 ft | 474 kts | 197° |
| 2026-04-21 19:33 | 48.18730 | 8.32846 | 35180 ft | 478 kts | 190° |
| 2026-04-21 19:34 | 48.12023 | 8.33339 | 35170 ft | 488 kts | 174° |
| 2026-04-21 19:34 | 48.05305 | 8.35001 | 35174 ft | 490 kts | 175° |
| 2026-04-21 19:35 | 47.95201 | 8.37401 | 35171 ft | 490 kts | 175° |
| 2026-04-21 19:36 | 47.88459 | 8.39000 | 35162 ft | 491 kts | 175° |
| 2026-04-21 19:36 | 47.81736 | 8.40620 | 35160 ft | 492 kts | 175° |
| 2026-04-21 19:37 | 47.74978 | 8.42255 | 35162 ft | 492 kts | 175° |
| 2026-04-21 19:37 | 47.68266 | 8.43849 | 35133 ft | 491 kts | 177° |
| 2026-04-21 19:38 | 47.61501 | 8.45026 | 35142 ft | 489 kts | 180° |
| 2026-04-21 19:38 | 47.54688 | 8.45875 | 35139 ft | 496 kts | 180° |
| 2026-04-21 19:39 | 47.47836 | 8.46760 | 35113 ft | 502 kts | 180° |
| 2026-04-21 19:39 | 47.40836 | 8.47785 | 35140 ft | 508 kts | 179° |
| 2026-04-21 19:40 | 47.33912 | 8.48832 | 35137 ft | 511 kts | 179° |
| 2026-04-21 19:40 | 47.26824 | 8.49884 | 35109 ft | 512 kts | 180° |
| 2026-04-21 19:41 | 47.19798 | 8.50911 | 35125 ft | 513 kts | 180° |
| 2026-04-21 19:41 | 47.12917 | 8.51921 | 35117 ft | 513 kts | 180° |
| 2026-04-21 19:42 | 47.05797 | 8.52943 | 35079 ft | 513 kts | 181° |
| 2026-04-21 19:42 | 46.99002 | 8.53917 | 35106 ft | 513 kts | 180° |
| 2026-04-21 19:43 | 46.91937 | 8.54941 | 35099 ft | 513 kts | 181° |
| 2026-04-21 19:43 | 46.84785 | 8.55971 | 35062 ft | 512 kts | 180° |
| 2026-04-21 19:44 | 46.77737 | 8.56980 | 35105 ft | 512 kts | 181° |
| 2026-04-21 19:44 | 46.70596 | 8.58008 | 35075 ft | 512 kts | 181° |
| 2026-04-21 19:45 | 46.63564 | 8.59011 | 35018 ft | 502 kts | 180° |
| 2026-04-21 19:45 | 46.56723 | 8.60005 | 35047 ft | 490 kts | 181° |
| 2026-04-21 19:46 | 46.49926 | 8.60957 | 35055 ft | 489 kts | 181° |
| 2026-04-21 19:46 | 46.43149 | 8.61899 | 35037 ft | 489 kts | 181° |
| 2026-04-21 19:47 | 46.36358 | 8.62849 | 35014 ft | 491 kts | 181° |
| 2026-04-21 19:47 | 46.29566 | 8.63807 | 35007 ft | 490 kts | 181° |
| 2026-04-21 19:48 | 46.22802 | 8.64755 | 34977 ft | 488 kts | 181° |
| 2026-04-21 19:48 | 46.16030 | 8.65713 | 35001 ft | 487 kts | 181° |
| 2026-04-21 19:49 | 46.09353 | 8.67735 | 35002 ft | 499 kts | 164° |
| 2026-04-21 19:49 | 46.03089 | 8.72251 | 34968 ft | 505 kts | 155° |
| 2026-04-21 19:50 | 45.97968 | 8.76271 | 35002 ft | 505 kts | 156° |
| 2026-04-21 19:50 | 45.90730 | 8.81906 | 35001 ft | 506 kts | 155° |
| 2026-04-21 19:51 | 45.84531 | 8.86726 | 35000 ft | 507 kts | 156° |
| 2026-04-21 19:51 | 45.78328 | 8.91546 | 35001 ft | 507 kts | 156° |
| 2026-04-21 19:52 | 45.72130 | 8.96342 | 34997 ft | 506 kts | 156° |
| 2026-04-21 19:52 | 45.65997 | 9.01321 | 35000 ft | 510 kts | 148° |
| 2026-04-21 19:53 | 45.60752 | 9.08212 | 34960 ft | 516 kts | 133° |
| 2026-04-21 19:53 | 45.55945 | 9.15814 | 34999 ft | 515 kts | 134° |
| 2026-04-21 19:53 | 45.53560 | 9.19543 | 34997 ft | 500 kts | 134° |
| 2026-04-21 19:54 | 45.51244 | 9.23155 | 34697 ft | 489 kts | 134° |
| 2026-04-21 19:54 | 45.48977 | 9.26693 | 34551 ft | 478 kts | 134° |
| 2026-04-21 19:54 | 45.46792 | 9.30101 | 34266 ft | 471 kts | 134° |
| 2026-04-21 19:54 | 45.44600 | 9.33521 | 33858 ft | 467 kts | 134° |
| 2026-04-21 19:55 | 45.42409 | 9.36935 | 33037 ft | 469 kts | 134° |
| 2026-04-21 19:55 | 45.40210 | 9.40357 | 32444 ft | 466 kts | 134° |
| 2026-04-21 19:55 | 45.38031 | 9.43744 | 31770 ft | 463 kts | 134° |
| 2026-04-21 19:55 | 45.35885 | 9.47076 | 31005 ft | 463 kts | 134° |
| 2026-04-21 19:56 | 45.33749 | 9.50391 | 30319 ft | 460 kts | 134° |
| 2026-04-21 19:56 | 45.31595 | 9.53731 | 29680 ft | 457 kts | 134° |
| 2026-04-21 19:56 | 45.29473 | 9.57015 | 29515 ft | 445 kts | 134° |
| 2026-04-21 19:56 | 45.27420 | 9.60191 | 28729 ft | 444 kts | 135° |
| 2026-04-21 19:57 | 45.25305 | 9.63408 | 27749 ft | 445 kts | 139° |
| 2026-04-21 19:57 | 45.22869 | 9.65981 | 27378 ft | 429 kts | 157° |
| 2026-04-21 19:57 | 45.20185 | 9.67577 | 27064 ft | 409 kts | 174° |
| 2026-04-21 19:57 | 45.17451 | 9.68170 | 26634 ft | 388 kts | 191° |
| 2026-04-21 19:58 | 45.14842 | 9.67813 | 26240 ft | 364 kts | 205° |
| 2026-04-21 19:58 | 45.12514 | 9.66721 | 25934 ft | 342 kts | 217° |
| 2026-04-21 19:58 | 45.10485 | 9.65119 | 25542 ft | 330 kts | 223° |
| 2026-04-21 19:58 | 45.08519 | 9.63443 | 25117 ft | 329 kts | 223° |
| 2026-04-21 19:59 | 45.06565 | 9.61791 | 24949 ft | 327 kts | 223° |
| 2026-04-21 19:59 | 45.04603 | 9.60131 | 24959 ft | 329 kts | 223° |
| 2026-04-21 19:59 | 45.02616 | 9.58442 | 24520 ft | 344 kts | 223° |
| 2026-04-21 19:59 | 45.00519 | 9.56644 | 23765 ft | 358 kts | 222° |
| 2026-04-21 20:00 | 44.98407 | 9.54873 | 23039 ft | 349 kts | 221° |
| 2026-04-21 20:00 | 44.96336 | 9.53161 | 22242 ft | 342 kts | 220° |
| 2026-04-21 20:00 | 44.94312 | 9.51492 | 22070 ft | 330 kts | 221° |
| 2026-04-21 20:00 | 44.92369 | 9.49887 | 21922 ft | 319 kts | 221° |
| 2026-04-21 20:01 | 44.90475 | 9.48308 | 21711 ft | 314 kts | 221° |
| 2026-04-21 20:01 | 44.88605 | 9.46738 | 21455 ft | 311 kts | 221° |
| 2026-04-21 20:01 | 44.86771 | 9.45193 | 21205 ft | 310 kts | 221° |
| 2026-04-21 20:01 | 44.84925 | 9.43639 | 20942 ft | 308 kts | 221° |
| 2026-04-21 20:02 | 44.83681 | 9.42595 | 20777 ft | 308 kts | 221° |
| 2026-04-21 20:02 | 44.81225 | 9.40537 | 20278 ft | 305 kts | 221° |
| 2026-04-21 20:02 | 44.79430 | 9.39036 | 19875 ft | 303 kts | 221° |
| 2026-04-21 20:02 | 44.77627 | 9.37531 | 19483 ft | 301 kts | 221° |
| 2026-04-21 20:03 | 44.75829 | 9.36030 | 19121 ft | 299 kts | 221° |
| 2026-04-21 20:03 | 44.74064 | 9.34563 | 18881 ft | 293 kts | 221° |
| 2026-04-21 20:03 | 44.72310 | 9.33104 | 18589 ft | 292 kts | 221° |
| 2026-04-21 20:03 | 44.70568 | 9.31654 | 18285 ft | 290 kts | 221° |
| 2026-04-21 20:04 | 44.68841 | 9.30213 | 17939 ft | 288 kts | 221° |
| 2026-04-21 20:04 | 44.67109 | 9.28768 | 17629 ft | 291 kts | 220° |
| 2026-04-21 20:04 | 44.65373 | 9.27323 | 17357 ft | 287 kts | 220° |
| 2026-04-21 20:04 | 44.63684 | 9.25933 | 17102 ft | 280 kts | 220° |
| 2026-04-21 20:05 | 44.62005 | 9.24546 | 16612 ft | 276 kts | 219° |
| 2026-04-21 20:05 | 44.60361 | 9.23176 | 16299 ft | 275 kts | 220° |
| 2026-04-21 20:05 | 44.58723 | 9.21799 | 15983 ft | 274 kts | 219° |
| 2026-04-21 20:05 | 44.57093 | 9.20427 | 15658 ft | 272 kts | 219° |
| 2026-04-21 20:06 | 44.56020 | 9.19528 | 15459 ft | 272 kts | 219° |
| 2026-04-21 20:06 | 44.54391 | 9.18167 | 15147 ft | 273 kts | 219° |
| 2026-04-21 20:06 | 44.52768 | 9.16811 | 14812 ft | 270 kts | 218° |
| 2026-04-21 20:06 | 44.51156 | 9.15466 | 14485 ft | 269 kts | 218° |
| 2026-04-21 20:07 | 44.49035 | 9.13701 | 14069 ft | 267 kts | 218° |
| 2026-04-21 20:07 | 44.47440 | 9.12374 | 13739 ft | 266 kts | 218° |
| 2026-04-21 20:07 | 44.46367 | 9.11482 | 13483 ft | 265 kts | 217° |
| 2026-04-21 20:07 | 44.44778 | 9.10159 | 13192 ft | 266 kts | 217° |
| 2026-04-21 20:08 | 44.43158 | 9.08912 | 12851 ft | 267 kts | 209° |
| 2026-04-21 20:08 | 44.41370 | 9.08127 | 12533 ft | 272 kts | 196° |
| 2026-04-21 20:08 | 44.39483 | 9.07820 | 12171 ft | 274 kts | 189° |
| 2026-04-21 20:08 | 44.37596 | 9.07577 | 11796 ft | 269 kts | 190° |
| 2026-04-21 20:09 | 44.35745 | 9.07335 | 11135 ft | 266 kts | 189° |
| 2026-04-21 20:09 | 44.33913 | 9.07091 | 10501 ft | 263 kts | 189° |
| 2026-04-21 20:09 | 44.32105 | 9.06846 | 9889 ft | 259 kts | 189° |
| 2026-04-21 20:09 | 44.30313 | 9.06755 | 9229 ft | 258 kts | 177° |
| 2026-04-21 20:10 | 44.28567 | 9.07324 | 8987 ft | 260 kts | 161° |
| 2026-04-21 20:10 | 44.26963 | 9.08516 | 8958 ft | 263 kts | 145° |
| 2026-04-21 20:10 | 44.25503 | 9.10060 | 8967 ft | 263 kts | 143° |
| 2026-04-21 20:10 | 44.24057 | 9.11590 | 8667 ft | 260 kts | 144° |
| 2026-04-21 20:11 | 44.22635 | 9.13094 | 8239 ft | 259 kts | 144° |
| 2026-04-21 20:11 | 44.21211 | 9.14599 | 7692 ft | 257 kts | 143° |
| 2026-04-21 20:11 | 44.19791 | 9.16097 | 7314 ft | 254 kts | 143° |
| 2026-04-21 20:11 | 44.18389 | 9.17577 | 6951 ft | 252 kts | 143° |
| 2026-04-21 20:12 | 44.17003 | 9.19046 | 6574 ft | 249 kts | 143° |
| 2026-04-21 20:12 | 44.15627 | 9.20504 | 6186 ft | 247 kts | 143° |
| 2026-04-21 20:12 | 44.14264 | 9.21944 | 5796 ft | 245 kts | 143° |
| 2026-04-21 20:12 | 44.12912 | 9.23369 | 5413 ft | 242 kts | 143° |
| 2026-04-21 20:13 | 44.11577 | 9.24776 | 5051 ft | 240 kts | 142° |
| 2026-04-21 20:13 | 44.10477 | 9.26470 | 4992 ft | 238 kts | 116° |
| 2026-04-21 20:13 | 44.10140 | 9.28698 | 4998 ft | 238 kts | 84° |
| 2026-04-21 20:13 | 44.10689 | 9.30834 | 4998 ft | 237 kts | 52° |
| 2026-04-21 20:14 | 44.11828 | 9.32495 | 4997 ft | 237 kts | 46° |
| 2026-04-21 20:14 | 44.12856 | 9.34253 | 4989 ft | 227 kts | 53° |
| 2026-04-21 20:14 | 44.13757 | 9.35979 | 5009 ft | 217 kts | 53° |
| 2026-04-21 20:14 | 44.14634 | 9.37683 | 5000 ft | 216 kts | 54° |
| 2026-04-21 20:15 | 44.15509 | 9.39385 | 5004 ft | 216 kts | 53° |
| 2026-04-21 20:15 | 44.16384 | 9.41084 | 5003 ft | 216 kts | 52° |
| 2026-04-21 20:15 | 44.17501 | 9.42444 | 5002 ft | 215 kts | 26° |
| 2026-04-21 20:15 | 44.18945 | 9.42888 | 5003 ft | 214 kts | 357° |
| 2026-04-21 20:16 | 44.20351 | 9.42282 | 5003 ft | 214 kts | 328° |
| 2026-04-21 20:16 | 44.21366 | 9.40793 | 5005 ft | 214 kts | 302° |
| 2026-04-21 20:16 | 44.22135 | 9.39006 | 5004 ft | 214 kts | 301° |
| 2026-04-21 20:16 | 44.22900 | 9.37225 | 4996 ft | 211 kts | 301° |
| 2026-04-21 20:17 | 44.23622 | 9.35542 | 4992 ft | 197 kts | 301° |
| 2026-04-21 20:17 | 44.24319 | 9.33918 | 4998 ft | 195 kts | 301° |
| 2026-04-21 20:17 | 44.25014 | 9.32300 | 5000 ft | 194 kts | 301° |
| 2026-04-21 20:17 | 44.25708 | 9.30683 | 5001 ft | 194 kts | 301° |
| 2026-04-21 20:18 | 44.26404 | 9.29064 | 5000 ft | 194 kts | 301° |
| 2026-04-21 20:18 | 44.27098 | 9.27448 | 5000 ft | 194 kts | 301° |
| 2026-04-21 20:18 | 44.27792 | 9.25830 | 5001 ft | 194 kts | 301° |
| 2026-04-21 20:18 | 44.28583 | 9.24341 | 4999 ft | 194 kts | 315° |
| 2026-04-21 20:19 | 44.29636 | 9.23156 | 5005 ft | 194 kts | 323° |
| 2026-04-21 20:19 | 44.30714 | 9.22022 | 5005 ft | 194 kts | 323° |
| 2026-04-21 20:19 | 44.31791 | 9.20881 | 5005 ft | 194 kts | 322° |
| 2026-04-21 20:19 | 44.32851 | 9.19715 | 5006 ft | 194 kts | 316° |
| 2026-04-21 20:20 | 44.33681 | 9.18244 | 4963 ft | 195 kts | 299° |
| 2026-04-21 20:20 | 44.34218 | 9.16512 | 4721 ft | 194 kts | 289° |
| 2026-04-21 20:20 | 44.34642 | 9.14724 | 4463 ft | 194 kts | 287° |
| 2026-04-21 20:20 | 44.35039 | 9.12932 | 4189 ft | 193 kts | 287° |
| 2026-04-21 20:21 | 44.35432 | 9.11133 | 3915 ft | 193 kts | 287° |
| 2026-04-21 20:21 | 44.35821 | 9.09339 | 3656 ft | 193 kts | 287° |
| 2026-04-21 20:21 | 44.36213 | 9.07559 | 3424 ft | 190 kts | 287° |
| 2026-04-21 20:21 | 44.36590 | 9.05793 | 3134 ft | 189 kts | 287° |
| 2026-04-21 20:22 | 44.36975 | 9.04045 | 2841 ft | 188 kts | 287° |
| 2026-04-21 20:22 | 44.37738 | 9.00625 | 2267 ft | 176 kts | 287° |
| 2026-04-21 20:22 | 44.38062 | 8.99025 | 2108 ft | 169 kts | 285° |
| 2026-04-21 20:23 | 44.38406 | 8.97477 | 1803 ft | 163 kts | 288° |
| 2026-04-21 20:23 | 44.38743 | 8.95996 | 1530 ft | 156 kts | 287° |
| 2026-04-21 20:23 | 44.39077 | 8.94591 | 1320 ft | 150 kts | 289° |
| 2026-04-21 20:23 | 44.39430 | 8.93229 | 1062 ft | 149 kts | 281° |
| 2026-04-21 20:24 | 44.39736 | 8.91851 | 770 ft | 149 kts | 271° |
| 2026-04-21 20:24 | 44.40006 | 8.90448 | 586 ft | 151 kts | 272° |
| 2026-04-21 20:24 | 44.40266 | 8.89023 | 455 ft | 158 kts | 285° |
| 2026-04-21 20:24 | 44.40594 | 8.87516 | 1231 ft | 168 kts | 288° |
| 2026-04-21 20:25 | 44.40979 | 8.85868 | 1990 ft | 192 kts | 288° |
| 2026-04-21 20:25 | 44.41384 | 8.83949 | 2688 ft | 218 kts | 279° |
| 2026-04-21 20:25 | 44.41511 | 8.81704 | 2971 ft | 235 kts | 269° |
| 2026-04-21 20:25 | 44.41204 | 8.79493 | 2972 ft | 234 kts | 242° |
| 2026-04-21 20:26 | 44.40138 | 8.77868 | 3108 ft | 231 kts | 210° |
| 2026-04-21 20:26 | 44.38600 | 8.77219 | 3102 ft | 233 kts | 181° |
| 2026-04-21 20:26 | 44.36998 | 8.77529 | 2963 ft | 232 kts | 166° |
| 2026-04-21 20:26 | 44.35454 | 8.78071 | 2962 ft | 232 kts | 169° |
| 2026-04-21 20:27 | 44.33822 | 8.78070 | 2999 ft | 234 kts | 182° |
| 2026-04-21 20:27 | 44.32224 | 8.78129 | 2938 ft | 232 kts | 176° |
| 2026-04-21 20:27 | 44.30606 | 8.78296 | 2997 ft | 233 kts | 175° |
| 2026-04-21 20:27 | 44.28966 | 8.78494 | 2998 ft | 233 kts | 175° |
| 2026-04-21 20:28 | 44.27376 | 8.78692 | 3000 ft | 233 kts | 174° |
| 2026-04-21 20:28 | 44.25759 | 8.78893 | 3003 ft | 233 kts | 174° |
| 2026-04-21 20:28 | 44.24139 | 8.79092 | 3004 ft | 234 kts | 174° |
| 2026-04-21 20:28 | 44.22519 | 8.79289 | 3003 ft | 234 kts | 175° |
| 2026-04-21 20:29 | 44.20899 | 8.79483 | 3001 ft | 234 kts | 174° |
| 2026-04-21 20:29 | 44.19276 | 8.79674 | 3000 ft | 234 kts | 175° |
| 2026-04-21 20:29 | 44.17653 | 8.79865 | 3000 ft | 234 kts | 175° |
| 2026-04-21 20:29 | 44.16030 | 8.80056 | 3001 ft | 234 kts | 175° |
| 2026-04-21 20:30 | 44.14408 | 8.80246 | 3003 ft | 233 kts | 175° |
| 2026-04-21 20:30 | 44.12800 | 8.80520 | 3001 ft | 233 kts | 166° |
| 2026-04-21 20:30 | 44.11346 | 8.81474 | 3002 ft | 232 kts | 140° |
| 2026-04-21 20:30 | 44.10424 | 8.83270 | 3003 ft | 230 kts | 108° |
| 2026-04-21 20:31 | 44.10349 | 8.85473 | 3142 ft | 233 kts | 75° |
| 2026-04-21 20:31 | 44.11058 | 8.87469 | 3811 ft | 232 kts | 48° |
| 2026-04-21 20:31 | 44.12374 | 8.88735 | 4435 ft | 234 kts | 17° |
| 2026-04-21 20:31 | 44.13985 | 8.89092 | 5174 ft | 235 kts | 4° |
| 2026-04-21 20:32 | 44.15631 | 8.89271 | 5794 ft | 241 kts | 4° |
| 2026-04-21 20:32 | 44.17304 | 8.89499 | 5959 ft | 241 kts | 5° |
| 2026-04-21 20:32 | 44.18969 | 8.89735 | 5996 ft | 240 kts | 4° |
| 2026-04-21 20:32 | 44.20635 | 8.89789 | 6001 ft | 238 kts | 347° |
| 2026-04-21 20:33 | 44.22080 | 8.88821 | 6007 ft | 235 kts | 315° |
| 2026-04-21 20:33 | 44.22966 | 8.86944 | 6002 ft | 235 kts | 288° |
| 2026-04-21 20:33 | 44.23136 | 8.84686 | 6002 ft | 235 kts | 261° |
| 2026-04-21 20:33 | 44.22527 | 8.82591 | 6006 ft | 237 kts | 232° |
| 2026-04-21 20:34 | 44.21251 | 8.81162 | 6002 ft | 239 kts | 203° |
| 2026-04-21 20:34 | 44.19619 | 8.80734 | 6004 ft | 241 kts | 184° |
| 2026-04-21 20:34 | 44.17939 | 8.80624 | 6002 ft | 242 kts | 183° |
| 2026-04-21 20:34 | 44.16259 | 8.80524 | 6001 ft | 242 kts | 183° |
| 2026-04-21 20:35 | 44.14576 | 8.80422 | 5998 ft | 242 kts | 184° |
| 2026-04-21 20:35 | 44.12894 | 8.80389 | 6002 ft | 243 kts | 172° |
| 2026-04-21 20:35 | 44.11330 | 8.81223 | 6000 ft | 244 kts | 143° |
| 2026-04-21 20:35 | 44.10241 | 8.83005 | 6003 ft | 244 kts | 114° |
| 2026-04-21 20:36 | 44.09889 | 8.85293 | 5999 ft | 244 kts | 85° |
| 2026-04-21 20:36 | 44.10368 | 8.87489 | 6002 ft | 242 kts | 55° |
| 2026-04-21 20:36 | 44.11595 | 8.89079 | 6004 ft | 240 kts | 24° |
| 2026-04-21 20:36 | 44.13195 | 8.89599 | 6003 ft | 238 kts | 1° |
| 2026-04-21 20:37 | 44.14830 | 8.89686 | 6003 ft | 239 kts | 0° |
| 2026-04-21 20:37 | 44.16493 | 8.89752 | 6004 ft | 239 kts | 0° |
| 2026-04-21 20:37 | 44.18155 | 8.89828 | 6005 ft | 239 kts | 1° |
| 2026-04-21 20:37 | 44.19813 | 8.89978 | 6000 ft | 240 kts | 11° |
| 2026-04-21 20:38 | 44.21288 | 8.91005 | 6004 ft | 241 kts | 43° |
| 2026-04-21 20:38 | 44.22170 | 8.92972 | 6004 ft | 243 kts | 75° |
| 2026-04-21 20:38 | 44.22193 | 8.95311 | 6007 ft | 244 kts | 105° |
| 2026-04-21 20:38 | 44.21628 | 8.97543 | 6005 ft | 245 kts | 112° |
| 2026-04-21 20:39 | 44.20964 | 8.99731 | 6014 ft | 244 kts | 114° |
| 2026-04-21 20:39 | 44.20286 | 9.01912 | 6006 ft | 245 kts | 114° |
| 2026-04-21 20:39 | 44.19607 | 9.04090 | 6002 ft | 245 kts | 114° |
| 2026-04-21 20:39 | 44.18928 | 9.06264 | 6002 ft | 245 kts | 114° |
| 2026-04-21 20:40 | 44.18255 | 9.08415 | 6004 ft | 245 kts | 114° |
| 2026-04-21 20:40 | 44.17561 | 9.10619 | 6007 ft | 245 kts | 114° |
| 2026-04-21 20:40 | 44.16878 | 9.12761 | 6008 ft | 245 kts | 114° |
| 2026-04-21 20:40 | 44.16184 | 9.14932 | 6005 ft | 245 kts | 114° |
| 2026-04-21 20:41 | 44.15489 | 9.17107 | 6006 ft | 245 kts | 114° |
| 2026-04-21 20:41 | 44.14795 | 9.19277 | 6006 ft | 245 kts | 114° |
| 2026-04-21 20:41 | 44.14126 | 9.21369 | 6007 ft | 226 kts | 114° |
| 2026-04-21 20:41 | 44.13504 | 9.23310 | 6013 ft | 216 kts | 114° |
| 2026-04-21 20:42 | 44.12894 | 9.25211 | 6004 ft | 214 kts | 114° |
| 2026-04-21 20:42 | 44.12288 | 9.27100 | 6005 ft | 213 kts | 114° |
| 2026-04-21 20:42 | 44.11698 | 9.28939 | 6000 ft | 204 kts | 114° |
| 2026-04-21 20:42 | 44.11128 | 9.30715 | 6009 ft | 203 kts | 114° |
| 2026-04-21 20:43 | 44.10555 | 9.32497 | 5920 ft | 200 kts | 114° |
| 2026-04-21 20:43 | 44.10080 | 9.34299 | 5541 ft | 198 kts | 95° |
| 2026-04-21 20:43 | 44.10355 | 9.36120 | 5195 ft | 194 kts | 57° |
| 2026-04-21 20:43 | 44.11378 | 9.37235 | 5010 ft | 189 kts | 15° |
| 2026-04-21 20:44 | 44.12695 | 9.37349 | 5008 ft | 192 kts | 356° |
| 2026-04-21 20:44 | 44.14028 | 9.37193 | 5007 ft | 193 kts | 354° |
| 2026-04-21 20:44 | 44.15364 | 9.37002 | 5009 ft | 193 kts | 354° |
| 2026-04-21 20:44 | 44.16695 | 9.36808 | 5009 ft | 193 kts | 354° |
| 2026-04-21 20:45 | 44.18022 | 9.36558 | 5006 ft | 193 kts | 344° |
| 2026-04-21 20:45 | 44.19169 | 9.35627 | 5010 ft | 193 kts | 319° |
| 2026-04-21 20:45 | 44.20185 | 9.34402 | 5009 ft | 193 kts | 319° |
| 2026-04-21 20:45 | 44.21198 | 9.33181 | 5009 ft | 193 kts | 319° |
| 2026-04-21 20:46 | 44.22214 | 9.31959 | 5009 ft | 193 kts | 319° |
| 2026-04-21 20:46 | 44.23229 | 9.30734 | 5009 ft | 193 kts | 319° |
| 2026-04-21 20:46 | 44.24244 | 9.29505 | 5016 ft | 194 kts | 319° |
| 2026-04-21 20:46 | 44.25261 | 9.28272 | 5015 ft | 194 kts | 319° |
| 2026-04-21 20:47 | 44.26283 | 9.27030 | 5014 ft | 194 kts | 319° |
| 2026-04-21 20:47 | 44.27299 | 9.25794 | 5014 ft | 194 kts | 319° |
| 2026-04-21 20:47 | 44.28306 | 9.24574 | 5014 ft | 194 kts | 319° |
| 2026-04-21 20:47 | 44.29358 | 9.23391 | 5014 ft | 194 kts | 322° |
| 2026-04-21 20:48 | 44.30433 | 9.22253 | 5013 ft | 194 kts | 323° |
| 2026-04-21 20:48 | 44.31513 | 9.21125 | 5012 ft | 194 kts | 323° |
| 2026-04-21 20:48 | 44.32595 | 9.19990 | 5014 ft | 194 kts | 321° |
| 2026-04-21 20:48 | 44.33509 | 9.18613 | 5008 ft | 195 kts | 304° |
| 2026-04-21 20:49 | 44.34108 | 9.16919 | 4786 ft | 194 kts | 291° |
| 2026-04-21 20:49 | 44.34548 | 9.15138 | 4528 ft | 193 kts | 288° |
| 2026-04-21 20:49 | 44.34948 | 9.13350 | 4253 ft | 193 kts | 287° |
| 2026-04-21 20:49 | 44.35340 | 9.11556 | 3981 ft | 192 kts | 287° |
| 2026-04-21 20:50 | 44.35725 | 9.09787 | 3714 ft | 192 kts | 287° |
| 2026-04-21 20:50 | 44.36114 | 9.07994 | 3444 ft | 189 kts | 287° |
| 2026-04-21 20:50 | 44.36491 | 9.06258 | 3181 ft | 184 kts | 287° |
| 2026-04-21 20:50 | 44.36859 | 9.04562 | 2922 ft | 180 kts | 287° |
| 2026-04-21 20:51 | 44.37219 | 9.02898 | 2672 ft | 177 kts | 287° |
| 2026-04-21 20:51 | 44.37566 | 9.01293 | 2427 ft | 168 kts | 287° |
| 2026-04-21 20:51 | 44.37898 | 8.99759 | 2222 ft | 166 kts | 287° |
| 2026-04-21 20:51 | 44.38232 | 8.98214 | 1963 ft | 165 kts | 287° |
| 2026-04-21 20:52 | 44.38562 | 8.96685 | 1725 ft | 164 kts | 287° |
| 2026-04-21 20:52 | 44.38878 | 8.95222 | 1478 ft | 155 kts | 287° |
| 2026-04-21 20:52 | 44.39185 | 8.93809 | 1285 ft | 151 kts | 286° |
| 2026-04-21 20:52 | 44.39495 | 8.92411 | 1073 ft | 150 kts | 286° |
| 2026-04-21 20:53 | 44.39708 | 8.91494 | 894 ft | 149 kts | 287° |
| 2026-04-21 20:53 | 44.40134 | 8.89663 | 597 ft | 147 kts | 282° |
| 2026-04-21 20:53 | 44.40419 | 8.88285 | 381 ft | 147 kts | 277° |
| 2026-04-21 20:53 | 44.40673 | 8.86895 | 216 ft | 148 kts | 275° |
| 2026-04-21 20:54 | 44.40848 | 8.85973 | 94 ft | 148 kts | 277° |
| 2026-04-21 20:54 | 44.41099 | 8.84659 | 21 ft | 124 kts | 285° |
| 2026-04-21 20:54 | 44.41286 | 8.83725 | 21 ft | 75 kts | 285° |
| 2026-04-21 20:54 | 44.41364 | 8.83317 | 23 ft | 33 kts | 287° |
| 2026-04-21 20:55 | 44.41468 | 8.83104 | 24 ft | 18 kts | 324° |
| 2026-04-21 20:55 | 44.41524 | 8.83094 | 24 ft | 0 kts | 15° |
| 2026-04-21 20:55 | 44.41524 | 8.83095 | 24 ft | 0 kts | 16° |
| 2026-04-21 20:55 | 44.41543 | 8.83124 | 25 ft | 10 kts | 64° |
| 2026-04-21 20:56 | 44.41539 | 8.83215 | 27 ft | 10 kts | 104° |
| 2026-04-21 20:56 | 44.41520 | 8.83315 | 24 ft | 12 kts | 105° |
| 2026-04-21 20:56 | 44.41496 | 8.83436 | 22 ft | 14 kts | 105° |
| 2026-04-21 20:56 | 44.41470 | 8.83569 | 23 ft | 15 kts | 105° |
| 2026-04-21 20:57 | 44.41441 | 8.83711 | 22 ft | 16 kts | 105° |
| 2026-04-21 20:57 | 44.41411 | 8.83869 | 19 ft | 17 kts | 105° |
| 2026-04-21 20:57 | 44.41381 | 8.84029 | 18 ft | 18 kts | 105° |
| 2026-04-21 20:57 | 44.41350 | 8.84185 | 16 ft | 13 kts | 106° |
| 2026-04-21 20:58 | 44.41326 | 8.84302 | 19 ft | 12 kts | 105° |
| 2026-04-21 20:58 | 44.41316 | 8.84409 | 19 ft | 11 kts | 70° |
| 2026-04-21 20:58 | 44.41363 | 8.84498 | 18 ft | 12 kts | 52° |
| 2026-04-21 20:58 | 44.41413 | 8.84591 | 18 ft | 11 kts | 61° |
| 2026-04-21 20:59 | 44.41406 | 8.84667 | 19 ft | 8 kts | 105° |
| 2026-04-21 20:59 | 44.41388 | 8.84724 | 18 ft | 3 kts | 140° |
| 2026-04-21 20:59 | 44.41366 | 8.84727 | 18 ft | 4 kts | 186° |
| 2026-04-21 20:59 | 44.41340 | 8.84720 | 18 ft | 3 kts | 193° |
| 2026-04-21 21:00 | 44.41327 | 8.84715 | 18 ft | 0 kts | 195° |